sensor_id;sensor_type;location;lat;lon;timestamp;temperature;humidity
35085;SHT85;21267;51.032;6.998;2023-04-06T00:01:39;3.66;72.30
35085;SHT85;21267;51.032;6.998;2023-04-06T00:04:07;3.51;72.83
35085;SHT85;21267;51.032;6.998;2023-04-06T00:06:34;3.15;73.79
35085;SHT85;21267;51.032;6.998;2023-04-06T00:09:01;3.38;73.59
35085;SHT85;21267;51.032;6.998;2023-04-06T00:11:28;3.37;73.81
35085;SHT85;21267;51.032;6.998;2023-04-06T00:13:54;3.19;73.88
35085;SHT85;21267;51.032;6.998;2023-04-06T00:16:21;2.91;75.21
35085;SHT85;21267;51.032;6.998;2023-04-06T00:18:50;3.16;74.80
35085;SHT85;21267;51.032;6.998;2023-04-06T00:21:17;3.15;74.57
35085;SHT85;21267;51.032;6.998;2023-04-06T00:23:43;2.98;74.71
35085;SHT85;21267;51.032;6.998;2023-04-06T00:26:13;3.07;74.69
35085;SHT85;21267;51.032;6.998;2023-04-06T00:28:39;2.91;74.82
35085;SHT85;21267;51.032;6.998;2023-04-06T00:31:06;2.75;75.28
35085;SHT85;21267;51.032;6.998;2023-04-06T00:33:33;2.77;75.76
35085;SHT85;21267;51.032;6.998;2023-04-06T00:35:59;2.84;75.54
35085;SHT85;21267;51.032;6.998;2023-04-06T00:38:27;2.91;75.21
35085;SHT85;21267;51.032;6.998;2023-04-06T00:40:53;2.92;75.79
35085;SHT85;21267;51.032;6.998;2023-04-06T00:43:20;2.69;75.47
35085;SHT85;21267;51.032;6.998;2023-04-06T00:45:48;2.42;76.53
35085;SHT85;21267;51.032;6.998;2023-04-06T00:48:16;2.69;76.43
35085;SHT85;21267;51.032;6.998;2023-04-06T00:50:43;2.69;76.00
35085;SHT85;21267;51.032;6.998;2023-04-06T00:53:09;2.51;76.63
35085;SHT85;21267;51.032;6.998;2023-04-06T00:55:36;2.61;76.55
35085;SHT85;21267;51.032;6.998;2023-04-06T00:58:05;2.65;76.11
35085;SHT85;21267;51.032;6.998;2023-04-06T01:00:32;2.66;75.62
35085;SHT85;21267;51.032;6.998;2023-04-06T01:02:58;2.71;75.06
35085;SHT85;21267;51.032;6.998;2023-04-06T01:05:25;2.75;75.58
35085;SHT85;21267;51.032;6.998;2023-04-06T01:07:52;2.85;75.54
35085;SHT85;21267;51.032;6.998;2023-04-06T01:10:26;2.86;75.37
35085;SHT85;21267;51.032;6.998;2023-04-06T01:12:56;2.91;75.19
35085;SHT85;21267;51.032;6.998;2023-04-06T01:15:23;2.48;76.07
35085;SHT85;21267;51.032;6.998;2023-04-06T01:17:50;2.69;75.73
35085;SHT85;21267;51.032;6.998;2023-04-06T01:20:17;2.58;76.47
35085;SHT85;21267;51.032;6.998;2023-04-06T01:22:44;2.52;76.67
35085;SHT85;21267;51.032;6.998;2023-04-06T01:25:11;2.54;76.41
35085;SHT85;21267;51.032;6.998;2023-04-06T01:27:37;2.38;76.96
35085;SHT85;21267;51.032;6.998;2023-04-06T01:30:05;2.52;76.90
35085;SHT85;21267;51.032;6.998;2023-04-06T01:32:32;2.45;77.17
35085;SHT85;21267;51.032;6.998;2023-04-06T01:34:59;2.64;76.69
35085;SHT85;21267;51.032;6.998;2023-04-06T01:37:25;2.69;76.37
35085;SHT85;21267;51.032;6.998;2023-04-06T01:39:52;2.71;76.40
35085;SHT85;21267;51.032;6.998;2023-04-06T01:42:19;2.48;76.60
35085;SHT85;21267;51.032;6.998;2023-04-06T01:44:46;2.33;77.01
35085;SHT85;21267;51.032;6.998;2023-04-06T01:47:12;2.42;76.99
35085;SHT85;21267;51.032;6.998;2023-04-06T01:49:39;2.47;76.69
35085;SHT85;21267;51.032;6.998;2023-04-06T01:52:05;2.37;77.19
35085;SHT85;21267;51.032;6.998;2023-04-06T01:54:32;2.54;77.08
35085;SHT85;21267;51.032;6.998;2023-04-06T01:56:59;2.14;77.99
35085;SHT85;21267;51.032;6.998;2023-04-06T01:59:26;2.28;78.17
35085;SHT85;21267;51.032;6.998;2023-04-06T02:01:52;2.20;78.43
35085;SHT85;21267;51.032;6.998;2023-04-06T02:04:19;2.20;78.24
35085;SHT85;21267;51.032;6.998;2023-04-06T02:06:46;2.33;77.64
35085;SHT85;21267;51.032;6.998;2023-04-06T02:09:13;2.31;77.73
35085;SHT85;21267;51.032;6.998;2023-04-06T02:11:40;2.20;78.25
35085;SHT85;21267;51.032;6.998;2023-04-06T02:14:07;2.02;78.90
35085;SHT85;21267;51.032;6.998;2023-04-06T02:16:34;1.80;79.09
35085;SHT85;21267;51.032;6.998;2023-04-06T02:19:01;1.85;79.21
35085;SHT85;21267;51.032;6.998;2023-04-06T02:21:27;1.96;79.19
35085;SHT85;21267;51.032;6.998;2023-04-06T02:23:54;2.03;78.65
35085;SHT85;21267;51.032;6.998;2023-04-06T02:26:21;1.60;79.73
35085;SHT85;21267;51.032;6.998;2023-04-06T02:28:48;1.66;80.37
35085;SHT85;21267;51.032;6.998;2023-04-06T02:31:15;1.87;79.90
35085;SHT85;21267;51.032;6.998;2023-04-06T02:33:42;1.72;80.01
35085;SHT85;21267;51.032;6.998;2023-04-06T02:36:09;1.73;80.40
35085;SHT85;21267;51.032;6.998;2023-04-06T02:38:36;1.63;80.25
35085;SHT85;21267;51.032;6.998;2023-04-06T02:41:02;1.52;81.02
35085;SHT85;21267;51.032;6.998;2023-04-06T02:43:29;1.52;81.34
35085;SHT85;21267;51.032;6.998;2023-04-06T02:45:56;1.90;80.16
35085;SHT85;21267;51.032;6.998;2023-04-06T02:48:22;1.66;80.21
35085;SHT85;21267;51.032;6.998;2023-04-06T02:50:49;1.42;81.01
35085;SHT85;21267;51.032;6.998;2023-04-06T02:53:16;1.47;81.56
35085;SHT85;21267;51.032;6.998;2023-04-06T02:55:42;1.60;80.81
35085;SHT85;21267;51.032;6.998;2023-04-06T02:58:09;1.51;80.67
35085;SHT85;21267;51.032;6.998;2023-04-06T03:00:37;1.76;80.53
35085;SHT85;21267;51.032;6.998;2023-04-06T03:03:03;1.70;80.47
35085;SHT85;21267;51.032;6.998;2023-04-06T03:05:30;1.62;80.35
35085;SHT85;21267;51.032;6.998;2023-04-06T03:07:57;1.63;80.75
35085;SHT85;21267;51.032;6.998;2023-04-06T03:10:23;1.65;80.55
35085;SHT85;21267;51.032;6.998;2023-04-06T03:12:50;1.68;80.08
35085;SHT85;21267;51.032;6.998;2023-04-06T03:15:17;1.79;79.58
35085;SHT85;21267;51.032;6.998;2023-04-06T03:17:46;1.69;79.82
35085;SHT85;21267;51.032;6.998;2023-04-06T03:20:13;1.82;79.64
35085;SHT85;21267;51.032;6.998;2023-04-06T03:22:39;1.60;79.91
35085;SHT85;21267;51.032;6.998;2023-04-06T03:25:06;1.58;80.10
35085;SHT85;21267;51.032;6.998;2023-04-06T03:27:33;1.55;80.18
35085;SHT85;21267;51.032;6.998;2023-04-06T03:30:00;1.60;79.92
35085;SHT85;21267;51.032;6.998;2023-04-06T03:32:27;1.73;79.57
35085;SHT85;21267;51.032;6.998;2023-04-06T03:34:53;1.44;80.25
35085;SHT85;21267;51.032;6.998;2023-04-06T03:37:20;1.37;80.75
35085;SHT85;21267;51.032;6.998;2023-04-06T03:39:47;1.55;80.50
35085;SHT85;21267;51.032;6.998;2023-04-06T03:42:13;1.55;80.41
35085;SHT85;21267;51.032;6.998;2023-04-06T03:44:40;1.41;80.34
35085;SHT85;21267;51.032;6.998;2023-04-06T03:47:07;1.62;80.27
35085;SHT85;21267;51.032;6.998;2023-04-06T03:49:34;1.66;79.55
35085;SHT85;21267;51.032;6.998;2023-04-06T03:52:01;1.59;79.54
35085;SHT85;21267;51.032;6.998;2023-04-06T03:54:28;1.49;80.61
35085;SHT85;21267;51.032;6.998;2023-04-06T03:56:54;1.62;79.66
35085;SHT85;21267;51.032;6.998;2023-04-06T03:59:24;1.54;80.20
35085;SHT85;21267;51.032;6.998;2023-04-06T04:01:51;1.28;80.48
35085;SHT85;21267;51.032;6.998;2023-04-06T04:04:18;1.38;80.36
35085;SHT85;21267;51.032;6.998;2023-04-06T04:06:44;1.37;81.00
35085;SHT85;21267;51.032;6.998;2023-04-06T04:09:12;1.35;80.81
35085;SHT85;21267;51.032;6.998;2023-04-06T04:11:39;1.45;80.61
35085;SHT85;21267;51.032;6.998;2023-04-06T04:14:06;1.20;81.28
35085;SHT85;21267;51.032;6.998;2023-04-06T04:16:33;1.20;81.37
35085;SHT85;21267;51.032;6.998;2023-04-06T04:19:08;1.28;81.17
35085;SHT85;21267;51.032;6.998;2023-04-06T04:21:50;1.08;81.06
35085;SHT85;21267;51.032;6.998;2023-04-06T04:24:20;1.34;80.47
35085;SHT85;21267;51.032;6.998;2023-04-06T04:26:47;1.16;80.55
35085;SHT85;21267;51.032;6.998;2023-04-06T04:29:14;1.11;80.85
35085;SHT85;21267;51.032;6.998;2023-04-06T04:31:44;1.03;81.17
35085;SHT85;21267;51.032;6.998;2023-04-06T04:34:15;1.05;80.90
35085;SHT85;21267;51.032;6.998;2023-04-06T04:36:42;0.96;81.29
35085;SHT85;21267;51.032;6.998;2023-04-06T04:39:09;1.16;81.09
35085;SHT85;21267;51.032;6.998;2023-04-06T04:41:36;1.03;80.98
35085;SHT85;21267;51.032;6.998;2023-04-06T04:44:03;1.37;80.65
35085;SHT85;21267;51.032;6.998;2023-04-06T04:46:33;1.16;80.74
35085;SHT85;21267;51.032;6.998;2023-04-06T04:48:59;1.20;80.52
35085;SHT85;21267;51.032;6.998;2023-04-06T04:51:26;1.00;81.42
35085;SHT85;21267;51.032;6.998;2023-04-06T04:53:53;1.24;80.70
35085;SHT85;21267;51.032;6.998;2023-04-06T04:56:19;1.28;80.25
35085;SHT85;21267;51.032;6.998;2023-04-06T04:58:46;1.13;80.25
35085;SHT85;21267;51.032;6.998;2023-04-06T05:01:13;1.24;80.08
35085;SHT85;21267;51.032;6.998;2023-04-06T05:03:40;1.37;79.95
35085;SHT85;21267;51.032;6.998;2023-04-06T05:06:08;1.44;79.77
35085;SHT85;21267;51.032;6.998;2023-04-06T05:08:39;1.39;79.90
35085;SHT85;21267;51.032;6.998;2023-04-06T05:11:05;1.45;79.96
35085;SHT85;21267;51.032;6.998;2023-04-06T05:13:32;1.49;79.71
35085;SHT85;21267;51.032;6.998;2023-04-06T05:15:59;1.48;80.07
35085;SHT85;21267;51.032;6.998;2023-04-06T05:18:26;1.28;79.96
35085;SHT85;21267;51.032;6.998;2023-04-06T05:20:53;1.34;79.75
35085;SHT85;21267;51.032;6.998;2023-04-06T05:23:20;1.28;79.60
35085;SHT85;21267;51.032;6.998;2023-04-06T05:25:47;1.26;79.97
35085;SHT85;21267;51.032;6.998;2023-04-06T05:28:14;1.20;80.01
35085;SHT85;21267;51.032;6.998;2023-04-06T05:30:43;1.14;80.85
35085;SHT85;21267;51.032;6.998;2023-04-06T05:33:11;1.26;79.86
35085;SHT85;21267;51.032;6.998;2023-04-06T05:35:38;1.17;80.21
35085;SHT85;21267;51.032;6.998;2023-04-06T05:38:07;1.32;79.06
35085;SHT85;21267;51.032;6.998;2023-04-06T05:40:34;1.39;78.74
35085;SHT85;21267;51.032;6.998;2023-04-06T05:43:01;1.38;78.90
35085;SHT85;21267;51.032;6.998;2023-04-06T05:45:29;1.45;79.59
35085;SHT85;21267;51.032;6.998;2023-04-06T05:47:56;1.41;79.79
35085;SHT85;21267;51.032;6.998;2023-04-06T05:50:23;1.49;79.32
35085;SHT85;21267;51.032;6.998;2023-04-06T05:52:50;1.70;78.04
35085;SHT85;21267;51.032;6.998;2023-04-06T05:55:16;1.85;77.85
35085;SHT85;21267;51.032;6.998;2023-04-06T05:57:47;1.90;77.92
35085;SHT85;21267;51.032;6.998;2023-04-06T06:00:14;1.86;77.72
35085;SHT85;21267;51.032;6.998;2023-04-06T06:02:40;1.95;78.02
35085;SHT85;21267;51.032;6.998;2023-04-06T06:05:09;1.99;77.77
35085;SHT85;21267;51.032;6.998;2023-04-06T06:07:36;2.14;77.37
35085;SHT85;21267;51.032;6.998;2023-04-06T06:10:03;2.13;76.91
35085;SHT85;21267;51.032;6.998;2023-04-06T06:12:30;2.21;76.53
35085;SHT85;21267;51.032;6.998;2023-04-06T06:14:57;2.31;76.20
35085;SHT85;21267;51.032;6.998;2023-04-06T06:17:27;2.48;75.62
35085;SHT85;21267;51.032;6.998;2023-04-06T06:19:54;2.69;75.46
35085;SHT85;21267;51.032;6.998;2023-04-06T06:22:21;2.68;74.69
35085;SHT85;21267;51.032;6.998;2023-04-06T06:24:47;2.78;73.66
35085;SHT85;21267;51.032;6.998;2023-04-06T06:27:17;3.07;73.51
35085;SHT85;21267;51.032;6.998;2023-04-06T06:33:38;3.51;71.07
35085;SHT85;21267;51.032;6.998;2023-04-06T06:36:05;3.68;69.68
35085;SHT85;21267;51.032;6.998;2023-04-06T06:38:32;3.78;68.43
35085;SHT85;21267;51.032;6.998;2023-04-06T06:40:59;3.88;67.68
35085;SHT85;21267;51.032;6.998;2023-04-06T06:43:25;4.03;67.37
35085;SHT85;21267;51.032;6.998;2023-04-06T06:45:52;4.13;66.56
35085;SHT85;21267;51.032;6.998;2023-04-06T06:48:19;4.26;66.15
35085;SHT85;21267;51.032;6.998;2023-04-06T06:50:47;4.43;65.74
35085;SHT85;21267;51.032;6.998;2023-04-06T06:53:14;4.50;65.67
35085;SHT85;21267;51.032;6.998;2023-04-06T06:55:41;4.56;65.18
35085;SHT85;21267;51.032;6.998;2023-04-06T06:58:10;4.67;65.14
35085;SHT85;21267;51.032;6.998;2023-04-06T07:00:40;4.74;65.07
35085;SHT85;21267;51.032;6.998;2023-04-06T07:03:06;4.89;64.52
35085;SHT85;21267;51.032;6.998;2023-04-06T07:05:33;4.95;64.41
35085;SHT85;21267;51.032;6.998;2023-04-06T07:08:00;5.22;64.48
35085;SHT85;21267;51.032;6.998;2023-04-06T07:10:27;5.18;63.39
35085;SHT85;21267;51.032;6.998;2023-04-06T07:12:53;5.29;63.10
35085;SHT85;21267;51.032;6.998;2023-04-06T07:15:23;5.43;63.03
35085;SHT85;21267;51.032;6.998;2023-04-06T07:17:50;5.63;62.65
35085;SHT85;21267;51.032;6.998;2023-04-06T07:20:18;5.77;62.15
35085;SHT85;21267;51.032;6.998;2023-04-06T07:22:48;5.76;61.84
35085;SHT85;21267;51.032;6.998;2023-04-06T07:25:14;6.42;60.85
35085;SHT85;21267;51.032;6.998;2023-04-06T07:27:41;7.36;59.08
35085;SHT85;21267;51.032;6.998;2023-04-06T07:30:08;7.99;57.24
35085;SHT85;21267;51.032;6.998;2023-04-06T07:32:35;8.07;56.49
35085;SHT85;21267;51.032;6.998;2023-04-06T07:35:03;8.24;56.04
35085;SHT85;21267;51.032;6.998;2023-04-06T07:37:30;8.45;55.40
35085;SHT85;21267;51.032;6.998;2023-04-06T07:39:57;8.96;54.37
35085;SHT85;21267;51.032;6.998;2023-04-06T07:42:23;9.01;53.76
35085;SHT85;21267;51.032;6.998;2023-04-06T07:44:50;9.20;53.72
35085;SHT85;21267;51.032;6.998;2023-04-06T07:47:17;9.02;54.59
35085;SHT85;21267;51.032;6.998;2023-04-06T07:49:43;8.72;54.66
35085;SHT85;21267;51.032;6.998;2023-04-06T07:52:10;9.02;54.43
35085;SHT85;21267;51.032;6.998;2023-04-06T07:54:37;9.40;53.36
35085;SHT85;21267;51.032;6.998;2023-04-06T07:57:03;9.12;53.93
35085;SHT85;21267;51.032;6.998;2023-04-06T07:59:30;9.20;54.17
35085;SHT85;21267;51.032;6.998;2023-04-06T08:01:57;9.39;53.53
35085;SHT85;21267;51.032;6.998;2023-04-06T08:04:23;9.70;53.92
35085;SHT85;21267;51.032;6.998;2023-04-06T08:06:50;9.54;53.69
35085;SHT85;21267;51.032;6.998;2023-04-06T08:09:17;9.78;53.22
35085;SHT85;21267;51.032;6.998;2023-04-06T08:11:44;10.11;51.98
35085;SHT85;21267;51.032;6.998;2023-04-06T08:14:12;10.85;51.51
35085;SHT85;21267;51.032;6.998;2023-04-06T08:16:39;10.90;50.14
35085;SHT85;21267;51.032;6.998;2023-04-06T08:19:05;11.01;50.72
35085;SHT85;21267;51.032;6.998;2023-04-06T08:21:35;10.94;50.56
35085;SHT85;21267;51.032;6.998;2023-04-06T08:24:02;10.45;50.96
35085;SHT85;21267;51.032;6.998;2023-04-06T08:26:29;11.00;50.35
35085;SHT85;21267;51.032;6.998;2023-04-06T08:28:56;10.97;49.91
35085;SHT85;21267;51.032;6.998;2023-04-06T08:31:22;10.66;50.10
35085;SHT85;21267;51.032;6.998;2023-04-06T08:33:49;11.29;49.43
35085;SHT85;21267;51.032;6.998;2023-04-06T08:36:17;12.03;48.63
35085;SHT85;21267;51.032;6.998;2023-04-06T08:38:46;12.17;48.25
35085;SHT85;21267;51.032;6.998;2023-04-06T08:41:13;11.67;48.24
35085;SHT85;21267;51.032;6.998;2023-04-06T08:43:47;11.86;47.23
35085;SHT85;21267;51.032;6.998;2023-04-06T08:46:14;11.89;47.84
35085;SHT85;21267;51.032;6.998;2023-04-06T08:48:42;11.79;47.12
35085;SHT85;21267;51.032;6.998;2023-04-06T08:51:10;12.13;47.57
35085;SHT85;21267;51.032;6.998;2023-04-06T08:53:37;12.58;46.54
35085;SHT85;21267;51.032;6.998;2023-04-06T08:56:04;12.47;46.45
35085;SHT85;21267;51.032;6.998;2023-04-06T08:58:35;12.90;46.05
35085;SHT85;21267;51.032;6.998;2023-04-06T09:01:10;12.76;45.50
35085;SHT85;21267;51.032;6.998;2023-04-06T09:03:39;13.46;44.70
35085;SHT85;21267;51.032;6.998;2023-04-06T09:06:08;13.68;44.40
35085;SHT85;21267;51.032;6.998;2023-04-06T09:08:37;13.86;44.31
35085;SHT85;21267;51.032;6.998;2023-04-06T09:11:04;13.71;44.29
35085;SHT85;21267;51.032;6.998;2023-04-06T09:13:31;14.47;43.64
35085;SHT85;21267;51.032;6.998;2023-04-06T09:16:02;14.20;43.96
35085;SHT85;21267;51.032;6.998;2023-04-06T09:18:33;14.54;44.00
35085;SHT85;21267;51.032;6.998;2023-04-06T09:21:02;14.29;44.82
35085;SHT85;21267;51.032;6.998;2023-04-06T09:23:29;14.15;44.70
35085;SHT85;21267;51.032;6.998;2023-04-06T09:26:10;13.84;45.14
35085;SHT85;21267;51.032;6.998;2023-04-06T09:28:48;14.13;45.50
35085;SHT85;21267;51.032;6.998;2023-04-06T09:31:22;14.23;44.78
35085;SHT85;21267;51.032;6.998;2023-04-06T09:33:50;13.89;45.27
35085;SHT85;21267;51.032;6.998;2023-04-06T09:36:18;13.38;45.75
35085;SHT85;21267;51.032;6.998;2023-04-06T09:38:56;13.48;45.75
35085;SHT85;21267;51.032;6.998;2023-04-06T09:41:25;13.51;46.07
35085;SHT85;21267;51.032;6.998;2023-04-06T09:44:02;13.96;45.90
35085;SHT85;21267;51.032;6.998;2023-04-06T09:46:31;13.92;46.26
35085;SHT85;21267;51.032;6.998;2023-04-06T09:49:17;13.55;46.24
35085;SHT85;21267;51.032;6.998;2023-04-06T09:51:46;13.84;46.31
35085;SHT85;21267;51.032;6.998;2023-04-06T09:54:18;14.30;45.55
35085;SHT85;21267;51.032;6.998;2023-04-06T09:56:47;14.13;46.27
35085;SHT85;21267;51.032;6.998;2023-04-06T09:59:18;14.06;45.74
35085;SHT85;21267;51.032;6.998;2023-04-06T10:01:48;13.84;46.28
35085;SHT85;21267;51.032;6.998;2023-04-06T10:04:53;13.94;46.63
35085;SHT85;21267;51.032;6.998;2023-04-06T10:07:22;14.47;45.05
35085;SHT85;21267;51.032;6.998;2023-04-06T10:09:49;14.94;45.18
35085;SHT85;21267;51.032;6.998;2023-04-06T10:12:18;14.81;45.39
35085;SHT85;21267;51.032;6.998;2023-04-06T10:14:45;15.06;44.58
35085;SHT85;21267;51.032;6.998;2023-04-06T10:17:12;14.89;45.15
35085;SHT85;21267;51.032;6.998;2023-04-06T10:19:52;15.25;44.19
35085;SHT85;21267;51.032;6.998;2023-04-06T10:22:49;14.87;44.99
35085;SHT85;21267;51.032;6.998;2023-04-06T10:25:30;15.31;44.57
35085;SHT85;21267;51.032;6.998;2023-04-06T10:28:18;14.88;45.10
35085;SHT85;21267;51.032;6.998;2023-04-06T10:30:45;15.28;45.03
35085;SHT85;21267;51.032;6.998;2023-04-06T10:33:13;14.50;46.32
35085;SHT85;21267;51.032;6.998;2023-04-06T10:35:40;15.16;45.81
35085;SHT85;21267;51.032;6.998;2023-04-06T10:38:07;14.66;44.98
35085;SHT85;21267;51.032;6.998;2023-04-06T10:40:38;14.34;45.29
35085;SHT85;21267;51.032;6.998;2023-04-06T10:43:12;14.43;46.29
35085;SHT85;21267;51.032;6.998;2023-04-06T10:45:41;15.15;45.75
35085;SHT85;21267;51.032;6.998;2023-04-06T10:48:17;15.06;46.03
35085;SHT85;21267;51.032;6.998;2023-04-06T10:50:48;14.75;45.44
35085;SHT85;21267;51.032;6.998;2023-04-06T10:53:27;14.53;45.87
35085;SHT85;21267;51.032;6.998;2023-04-06T10:55:56;14.43;45.77
35085;SHT85;21267;51.032;6.998;2023-04-06T10:58:25;14.73;44.99
35085;SHT85;21267;51.032;6.998;2023-04-06T11:00:54;14.52;45.64
35085;SHT85;21267;51.032;6.998;2023-04-06T11:03:22;14.67;44.98
35085;SHT85;21267;51.032;6.998;2023-04-06T11:05:50;14.44;46.38
35085;SHT85;21267;51.032;6.998;2023-04-06T11:08:31;14.71;46.08
35085;SHT85;21267;51.032;6.998;2023-04-06T11:11:11;14.47;46.37
35085;SHT85;21267;51.032;6.998;2023-04-06T11:13:55;14.50;46.71
35085;SHT85;21267;51.032;6.998;2023-04-06T11:16:26;15.25;45.40
35085;SHT85;21267;51.032;6.998;2023-04-06T11:24:19;15.39;44.36
35085;SHT85;21267;51.032;6.998;2023-04-06T11:26:59;15.02;45.18
35085;SHT85;21267;51.032;6.998;2023-04-06T11:29:30;14.57;46.53
35085;SHT85;21267;51.032;6.998;2023-04-06T11:32:00;14.53;46.60
35085;SHT85;21267;51.032;6.998;2023-04-06T11:34:30;14.57;46.72
35085;SHT85;21267;51.032;6.998;2023-04-06T11:37:00;14.56;46.94
35085;SHT85;21267;51.032;6.998;2023-04-06T11:39:27;14.43;46.72
35085;SHT85;21267;51.032;6.998;2023-04-06T11:41:57;14.37;47.00
35085;SHT85;21267;51.032;6.998;2023-04-06T11:47:03;14.01;47.44
35085;SHT85;21267;51.032;6.998;2023-04-06T11:49:31;14.23;47.40
35085;SHT85;21267;51.032;6.998;2023-04-06T11:51:59;13.99;47.57
35085;SHT85;21267;51.032;6.998;2023-04-06T11:54:36;14.29;47.45
35085;SHT85;21267;51.032;6.998;2023-04-06T11:57:04;14.25;46.99
35085;SHT85;21267;51.032;6.998;2023-04-06T11:59:32;14.44;46.88
35085;SHT85;21267;51.032;6.998;2023-04-06T12:01:59;14.20;47.29
35085;SHT85;21267;51.032;6.998;2023-04-06T12:04:25;14.20;47.44
35085;SHT85;21267;51.032;6.998;2023-04-06T12:06:53;13.98;47.51
35085;SHT85;21267;51.032;6.998;2023-04-06T12:09:20;13.96;47.34
35085;SHT85;21267;51.032;6.998;2023-04-06T12:11:46;14.20;46.79
35085;SHT85;21267;51.032;6.998;2023-04-06T12:14:13;14.30;46.53
35085;SHT85;21267;51.032;6.998;2023-04-06T12:16:41;14.23;46.96
35085;SHT85;21267;51.032;6.998;2023-04-06T12:19:08;14.13;47.01
35085;SHT85;21267;51.032;6.998;2023-04-06T12:21:35;14.33;46.81
35085;SHT85;21267;51.032;6.998;2023-04-06T12:24:05;14.13;47.41
35085;SHT85;21267;51.032;6.998;2023-04-06T12:26:33;14.22;47.19
35085;SHT85;21267;51.032;6.998;2023-04-06T12:28:59;14.15;46.84
35085;SHT85;21267;51.032;6.998;2023-04-06T12:31:36;14.22;47.02
35085;SHT85;21267;51.032;6.998;2023-04-06T12:34:05;14.12;46.98
35085;SHT85;21267;51.032;6.998;2023-04-06T12:36:32;14.29;46.96
35085;SHT85;21267;51.032;6.998;2023-04-06T12:39:00;13.96;47.19
35085;SHT85;21267;51.032;6.998;2023-04-06T12:41:27;13.95;47.58
35085;SHT85;21267;51.032;6.998;2023-04-06T12:43:54;13.82;47.78
35085;SHT85;21267;51.032;6.998;2023-04-06T12:46:21;13.99;47.99
35085;SHT85;21267;51.032;6.998;2023-04-06T12:48:51;14.13;47.80
35085;SHT85;21267;51.032;6.998;2023-04-06T12:51:22;14.26;47.59
35085;SHT85;21267;51.032;6.998;2023-04-06T12:53:48;14.23;48.27
35085;SHT85;21267;51.032;6.998;2023-04-06T12:56:17;14.12;49.17
35085;SHT85;21267;51.032;6.998;2023-04-06T12:58:45;13.88;49.43
35085;SHT85;21267;51.032;6.998;2023-04-06T13:01:12;14.23;49.44
35085;SHT85;21267;51.032;6.998;2023-04-06T13:03:40;14.27;49.55
35085;SHT85;21267;51.032;6.998;2023-04-06T13:06:08;14.40;48.75
35085;SHT85;21267;51.032;6.998;2023-04-06T13:08:39;13.92;49.63
35085;SHT85;21267;51.032;6.998;2023-04-06T13:11:06;13.81;50.30
35085;SHT85;21267;51.032;6.998;2023-04-06T13:13:36;13.75;50.43
35085;SHT85;21267;51.032;6.998;2023-04-06T13:16:09;13.53;50.92
35085;SHT85;21267;51.032;6.998;2023-04-06T13:18:36;13.55;50.62
35085;SHT85;21267;51.032;6.998;2023-04-06T13:21:06;13.68;50.44
35085;SHT85;21267;51.032;6.998;2023-04-06T13:23:34;13.64;51.16
35085;SHT85;21267;51.032;6.998;2023-04-06T13:26:01;13.74;51.58
35085;SHT85;21267;51.032;6.998;2023-04-06T13:28:30;13.55;51.84
35085;SHT85;21267;51.032;6.998;2023-04-06T13:30:58;13.58;52.43
35085;SHT85;21267;51.032;6.998;2023-04-06T13:33:25;13.15;53.09
35085;SHT85;21267;51.032;6.998;2023-04-06T13:35:52;13.37;53.12
35085;SHT85;21267;51.032;6.998;2023-04-06T13:38:19;13.43;53.60
35085;SHT85;21267;51.032;6.998;2023-04-06T13:40:46;13.16;54.50
35085;SHT85;21267;51.032;6.998;2023-04-06T13:43:13;13.23;54.87
35085;SHT85;21267;51.032;6.998;2023-04-06T13:45:39;13.03;55.21
35085;SHT85;21267;51.032;6.998;2023-04-06T13:48:06;12.69;55.86
35085;SHT85;21267;51.032;6.998;2023-04-06T13:50:33;12.73;55.99
35085;SHT85;21267;51.032;6.998;2023-04-06T13:53:00;12.62;56.28
35085;SHT85;21267;51.032;6.998;2023-04-06T13:55:27;12.92;56.28
35085;SHT85;21267;51.032;6.998;2023-04-06T13:57:54;12.42;56.78
35085;SHT85;21267;51.032;6.998;2023-04-06T14:00:21;12.48;56.93
35085;SHT85;21267;51.032;6.998;2023-04-06T14:02:48;12.17;57.73
35085;SHT85;21267;51.032;6.998;2023-04-06T14:05:15;12.22;58.13
35085;SHT85;21267;51.032;6.998;2023-04-06T14:07:42;12.29;58.18
35085;SHT85;21267;51.032;6.998;2023-04-06T14:10:09;12.03;58.75
35085;SHT85;21267;51.032;6.998;2023-04-06T14:12:43;11.91;59.43
35085;SHT85;21267;51.032;6.998;2023-04-06T14:15:11;11.86;59.53
35085;SHT85;21267;51.032;6.998;2023-04-06T14:17:38;11.80;59.66
35085;SHT85;21267;51.032;6.998;2023-04-06T14:20:06;11.93;59.58
35085;SHT85;21267;51.032;6.998;2023-04-06T14:22:33;11.71;59.56
35085;SHT85;21267;51.032;6.998;2023-04-06T14:25:00;11.62;59.97
35085;SHT85;21267;51.032;6.998;2023-04-06T14:27:27;11.46;60.71
35085;SHT85;21267;51.032;6.998;2023-04-06T14:29:54;11.43;61.11
35085;SHT85;21267;51.032;6.998;2023-04-06T14:32:21;11.29;62.12
35085;SHT85;21267;51.032;6.998;2023-04-06T14:34:49;11.45;62.51
35085;SHT85;21267;51.032;6.998;2023-04-06T14:37:15;11.41;62.63
35085;SHT85;21267;51.032;6.998;2023-04-06T14:39:43;11.45;63.03
35085;SHT85;21267;51.032;6.998;2023-04-06T14:42:13;11.32;62.68
35085;SHT85;21267;51.032;6.998;2023-04-06T14:44:39;11.35;63.08
35085;SHT85;21267;51.032;6.998;2023-04-06T14:47:12;11.07;64.50
35085;SHT85;21267;51.032;6.998;2023-04-06T14:49:42;11.14;65.20
35085;SHT85;21267;51.032;6.998;2023-04-06T14:52:11;11.02;66.60
35085;SHT85;21267;51.032;6.998;2023-04-06T14:54:40;10.87;67.56
35085;SHT85;21267;51.032;6.998;2023-04-06T14:57:08;10.94;67.92
35085;SHT85;21267;51.032;6.998;2023-04-06T14:59:34;10.80;68.16
35085;SHT85;21267;51.032;6.998;2023-04-06T15:02:06;10.66;69.00
35085;SHT85;21267;51.032;6.998;2023-04-06T15:04:35;10.63;70.26
35085;SHT85;21267;51.032;6.998;2023-04-06T15:07:03;10.52;70.71
35085;SHT85;21267;51.032;6.998;2023-04-06T15:09:30;10.34;71.68
35085;SHT85;21267;51.032;6.998;2023-04-06T15:11:57;10.34;72.99
35085;SHT85;21267;51.032;6.998;2023-04-06T15:14:24;10.23;72.92
35085;SHT85;21267;51.032;6.998;2023-04-06T15:16:50;9.97;74.29
35085;SHT85;21267;51.032;6.998;2023-04-06T15:19:17;9.97;74.54
35085;SHT85;21267;51.032;6.998;2023-04-06T15:21:44;9.81;75.95
35085;SHT85;21267;51.032;6.998;2023-04-06T15:24:12;9.87;76.81
35085;SHT85;21267;51.032;6.998;2023-04-06T15:26:38;9.77;75.03
35085;SHT85;21267;51.032;6.998;2023-04-06T15:29:05;9.63;77.05
35085;SHT85;21267;51.032;6.998;2023-04-06T15:31:32;9.53;78.67
35085;SHT85;21267;51.032;6.998;2023-04-06T15:34:05;9.40;78.42
35085;SHT85;21267;51.032;6.998;2023-04-06T15:36:34;9.40;79.73
35085;SHT85;21267;51.032;6.998;2023-04-06T15:39:02;9.27;79.97
35085;SHT85;21267;51.032;6.998;2023-04-06T15:41:29;9.16;81.43
35085;SHT85;21267;51.032;6.998;2023-04-06T15:43:57;9.20;80.85
35085;SHT85;21267;51.032;6.998;2023-04-06T15:46:24;9.11;82.47
35085;SHT85;21267;51.032;6.998;2023-04-06T15:48:55;9.08;82.09
35085;SHT85;21267;51.032;6.998;2023-04-06T15:51:22;9.08;82.68
35085;SHT85;21267;51.032;6.998;2023-04-06T15:53:49;9.02;83.56
35085;SHT85;21267;51.032;6.998;2023-04-06T15:56:16;8.92;83.16
35085;SHT85;21267;51.032;6.998;2023-04-06T15:58:44;8.91;83.12